sensor_id;sensor_type;location;lat;lon;timestamp;temperature;humidity
46508;DHT22;32223;53.654;10.014;2024-01-07T00:01:31;-2.10;99.90
46508;DHT22;32223;53.654;10.014;2024-01-07T00:03:56;-2.10;99.90
46508;DHT22;32223;53.654;10.014;2024-01-07T00:06:22;-2.20;99.90
46508;DHT22;32223;53.654;10.014;2024-01-07T00:08:48;-2.20;99.90
46508;DHT22;32223;53.654;10.014;2024-01-07T00:11:14;-2.20;99.90
46508;DHT22;32223;53.654;10.014;2024-01-07T00:13:39;-2.20;99.90
46508;DHT22;32223;53.654;10.014;2024-01-07T00:16:05;-2.30;99.90
46508;DHT22;32223;53.654;10.014;2024-01-07T00:18:31;-2.30;99.90
46508;DHT22;32223;53.654;10.014;2024-01-07T00:20:56;-2.40;99.90
46508;DHT22;32223;53.654;10.014;2024-01-07T00:23:22;-2.40;99.90
46508;DHT22;32223;53.654;10.014;2024-01-07T00:25:48;-2.40;99.90
46508;DHT22;32223;53.654;10.014;2024-01-07T00:28:14;-2.40;99.90
46508;DHT22;32223;53.654;10.014;2024-01-07T00:30:39;-2.40;99.90
46508;DHT22;32223;53.654;10.014;2024-01-07T00:33:05;-2.40;99.90
46508;DHT22;32223;53.654;10.014;2024-01-07T00:35:30;-2.50;99.90
46508;DHT22;32223;53.654;10.014;2024-01-07T00:37:56;-2.50;99.90
46508;DHT22;32223;53.654;10.014;2024-01-07T00:40:23;-2.50;99.90
46508;DHT22;32223;53.654;10.014;2024-01-07T00:42:48;-2.40;99.90
46508;DHT22;32223;53.654;10.014;2024-01-07T00:45:14;-2.50;99.90
46508;DHT22;32223;53.654;10.014;2024-01-07T00:47:39;-2.50;99.90
46508;DHT22;32223;53.654;10.014;2024-01-07T00:50:05;-2.40;99.90
46508;DHT22;32223;53.654;10.014;2024-01-07T00:52:31;-2.40;99.90
46508;DHT22;32223;53.654;10.014;2024-01-07T00:54:57;-2.40;99.90
46508;DHT22;32223;53.654;10.014;2024-01-07T00:57:22;-2.40;99.90
46508;DHT22;32223;53.654;10.014;2024-01-07T00:59:48;-2.40;99.90
46508;DHT22;32223;53.654;10.014;2024-01-07T01:02:15;-2.40;99.90
46508;DHT22;32223;53.654;10.014;2024-01-07T01:04:41;-2.50;99.90
46508;DHT22;32223;53.654;10.014;2024-01-07T01:07:07;-2.50;99.90
46508;DHT22;32223;53.654;10.014;2024-01-07T01:09:33;-2.40;99.90
46508;DHT22;32223;53.654;10.014;2024-01-07T01:11:59;-2.50;99.90
46508;DHT22;32223;53.654;10.014;2024-01-07T01:14:24;-2.50;99.90
46508;DHT22;32223;53.654;10.014;2024-01-07T01:16:50;-2.50;99.90
46508;DHT22;32223;53.654;10.014;2024-01-07T01:19:17;-2.50;99.90
46508;DHT22;32223;53.654;10.014;2024-01-07T01:21:42;-2.50;99.90
46508;DHT22;32223;53.654;10.014;2024-01-07T01:24:08;-2.50;99.90
46508;DHT22;32223;53.654;10.014;2024-01-07T01:26:33;-2.50;99.90
46508;DHT22;32223;53.654;10.014;2024-01-07T01:28:59;-2.50;99.90
46508;DHT22;32223;53.654;10.014;2024-01-07T01:31:24;-2.50;99.90
46508;DHT22;32223;53.654;10.014;2024-01-07T01:33:50;-2.50;99.90
46508;DHT22;32223;53.654;10.014;2024-01-07T01:36:15;-2.50;99.90
46508;DHT22;32223;53.654;10.014;2024-01-07T01:38:41;-2.40;99.90
46508;DHT22;32223;53.654;10.014;2024-01-07T01:41:07;-2.40;99.90
46508;DHT22;32223;53.654;10.014;2024-01-07T01:43:32;-2.40;99.90
46508;DHT22;32223;53.654;10.014;2024-01-07T01:45:58;-2.40;99.90
46508;DHT22;32223;53.654;10.014;2024-01-07T01:48:25;-2.40;99.90
46508;DHT22;32223;53.654;10.014;2024-01-07T01:50:52;-2.40;99.90
46508;DHT22;32223;53.654;10.014;2024-01-07T01:53:19;-2.40;99.90
46508;DHT22;32223;53.654;10.014;2024-01-07T01:55:45;-2.30;99.90
46508;DHT22;32223;53.654;10.014;2024-01-07T01:58:13;-2.30;99.90
46508;DHT22;32223;53.654;10.014;2024-01-07T02:00:39;-2.20;99.90
46508;DHT22;32223;53.654;10.014;2024-01-07T02:03:05;-2.20;99.90
46508;DHT22;32223;53.654;10.014;2024-01-07T02:05:31;-2.10;99.90
46508;DHT22;32223;53.654;10.014;2024-01-07T02:07:57;-2.10;99.90
46508;DHT22;32223;53.654;10.014;2024-01-07T02:10:24;-2.00;99.90
46508;DHT22;32223;53.654;10.014;2024-01-07T02:12:49;-2.00;99.90
46508;DHT22;32223;53.654;10.014;2024-01-07T02:15:15;-2.00;99.90
46508;DHT22;32223;53.654;10.014;2024-01-07T02:17:41;-1.90;99.90
46508;DHT22;32223;53.654;10.014;2024-01-07T02:20:07;-1.80;99.90
46508;DHT22;32223;53.654;10.014;2024-01-07T02:22:33;-1.80;99.90
46508;DHT22;32223;53.654;10.014;2024-01-07T02:24:58;-1.80;99.90
46508;DHT22;32223;53.654;10.014;2024-01-07T02:27:24;-1.80;99.90
46508;DHT22;32223;53.654;10.014;2024-01-07T02:29:49;-1.70;99.90
46508;DHT22;32223;53.654;10.014;2024-01-07T02:32:15;-1.70;99.90
46508;DHT22;32223;53.654;10.014;2024-01-07T02:34:41;-1.70;99.90
46508;DHT22;32223;53.654;10.014;2024-01-07T02:37:06;-1.70;99.90
46508;DHT22;32223;53.654;10.014;2024-01-07T02:39:32;-1.70;99.90
46508;DHT22;32223;53.654;10.014;2024-01-07T02:41:57;-1.60;99.90
46508;DHT22;32223;53.654;10.014;2024-01-07T02:44:23;-1.60;99.90
46508;DHT22;32223;53.654;10.014;2024-01-07T02:46:49;-1.60;99.90
46508;DHT22;32223;53.654;10.014;2024-01-07T02:49:14;-1.60;99.90
46508;DHT22;32223;53.654;10.014;2024-01-07T02:51:40;-1.60;99.90
46508;DHT22;32223;53.654;10.014;2024-01-07T02:54:06;-1.60;99.90
46508;DHT22;32223;53.654;10.014;2024-01-07T02:56:31;-1.60;99.90
46508;DHT22;32223;53.654;10.014;2024-01-07T02:58:57;-1.50;99.90
46508;DHT22;32223;53.654;10.014;2024-01-07T03:01:22;-1.50;99.90
46508;DHT22;32223;53.654;10.014;2024-01-07T03:03:49;-1.50;99.90
46508;DHT22;32223;53.654;10.014;2024-01-07T03:06:15;-1.50;99.90
46508;DHT22;32223;53.654;10.014;2024-01-07T03:08:41;-1.40;99.90
46508;DHT22;32223;53.654;10.014;2024-01-07T03:11:07;-1.40;99.90
46508;DHT22;32223;53.654;10.014;2024-01-07T03:13:32;-1.40;99.90
46508;DHT22;32223;53.654;10.014;2024-01-07T03:15:58;-1.40;99.90
46508;DHT22;32223;53.654;10.014;2024-01-07T03:18:24;-1.40;99.90
46508;DHT22;32223;53.654;10.014;2024-01-07T03:20:50;-1.40;99.90
46508;DHT22;32223;53.654;10.014;2024-01-07T03:23:15;-1.40;99.90
46508;DHT22;32223;53.654;10.014;2024-01-07T03:25:41;-1.40;99.90
46508;DHT22;32223;53.654;10.014;2024-01-07T03:28:07;-1.30;99.90
46508;DHT22;32223;53.654;10.014;2024-01-07T03:30:32;-1.30;99.90
46508;DHT22;32223;53.654;10.014;2024-01-07T03:32:58;-1.30;99.90
46508;DHT22;32223;53.654;10.014;2024-01-07T03:35:23;-1.30;99.90
46508;DHT22;32223;53.654;10.014;2024-01-07T03:37:49;-1.30;99.90
46508;DHT22;32223;53.654;10.014;2024-01-07T03:40:15;-1.20;99.90
46508;DHT22;32223;53.654;10.014;2024-01-07T03:42:41;-1.20;99.90
46508;DHT22;32223;53.654;10.014;2024-01-07T03:45:07;-1.20;99.90
46508;DHT22;32223;53.654;10.014;2024-01-07T03:47:32;-1.20;99.90
46508;DHT22;32223;53.654;10.014;2024-01-07T03:49:58;-1.20;99.90
46508;DHT22;32223;53.654;10.014;2024-01-07T03:52:23;-1.20;99.90
46508;DHT22;32223;53.654;10.014;2024-01-07T03:54:49;-1.10;99.90
46508;DHT22;32223;53.654;10.014;2024-01-07T03:57:15;-1.10;99.90
46508;DHT22;32223;53.654;10.014;2024-01-07T03:59:40;-1.10;99.90
46508;DHT22;32223;53.654;10.014;2024-01-07T04:02:06;-1.10;99.90
46508;DHT22;32223;53.654;10.014;2024-01-07T04:04:31;-1.00;99.90
46508;DHT22;32223;53.654;10.014;2024-01-07T04:06:57;-1.00;99.90
46508;DHT22;32223;53.654;10.014;2024-01-07T04:09:23;-1.00;99.90
46508;DHT22;32223;53.654;10.014;2024-01-07T04:11:48;-1.00;99.90
46508;DHT22;32223;53.654;10.014;2024-01-07T04:14:15;-1.00;99.90
46508;DHT22;32223;53.654;10.014;2024-01-07T04:16:41;-1.00;99.90
46508;DHT22;32223;53.654;10.014;2024-01-07T04:19:06;-1.00;99.90
46508;DHT22;32223;53.654;10.014;2024-01-07T04:21:32;-1.00;99.90
46508;DHT22;32223;53.654;10.014;2024-01-07T04:23:57;-1.00;99.90
46508;DHT22;32223;53.654;10.014;2024-01-07T04:26:23;-1.00;99.90
46508;DHT22;32223;53.654;10.014;2024-01-07T04:28:50;-1.00;99.90
46508;DHT22;32223;53.654;10.014;2024-01-07T04:31:15;-1.00;99.90
46508;DHT22;32223;53.654;10.014;2024-01-07T04:33:41;-1.00;99.90
46508;DHT22;32223;53.654;10.014;2024-01-07T04:36:06;-1.00;99.90
46508;DHT22;32223;53.654;10.014;2024-01-07T04:38:32;-1.00;99.90
46508;DHT22;32223;53.654;10.014;2024-01-07T04:40:58;-1.00;99.90
46508;DHT22;32223;53.654;10.014;2024-01-07T04:43:23;-1.00;99.90
46508;DHT22;32223;53.654;10.014;2024-01-07T04:45:49;-1.00;99.90
46508;DHT22;32223;53.654;10.014;2024-01-07T04:48:14;-1.00;99.90
46508;DHT22;32223;53.654;10.014;2024-01-07T04:50:40;-1.00;99.90
46508;DHT22;32223;53.654;10.014;2024-01-07T04:53:09;-1.00;99.90
46508;DHT22;32223;53.654;10.014;2024-01-07T04:55:36;-1.00;99.90
46508;DHT22;32223;53.654;10.014;2024-01-07T04:58:01;-1.00;99.90
46508;DHT22;32223;53.654;10.014;2024-01-07T05:00:27;-0.90;99.90
46508;DHT22;32223;53.654;10.014;2024-01-07T05:02:53;-0.90;99.90
46508;DHT22;32223;53.654;10.014;2024-01-07T05:05:19;-0.90;99.90
46508;DHT22;32223;53.654;10.014;2024-01-07T05:07:44;-0.90;99.90
46508;DHT22;32223;53.654;10.014;2024-01-07T05:10:10;-0.90;99.90
46508;DHT22;32223;53.654;10.014;2024-01-07T05:12:35;-0.90;99.90
46508;DHT22;32223;53.654;10.014;2024-01-07T05:15:01;-0.90;99.90
46508;DHT22;32223;53.654;10.014;2024-01-07T05:17:27;-0.90;99.90
46508;DHT22;32223;53.654;10.014;2024-01-07T05:19:54;-1.00;99.90
46508;DHT22;32223;53.654;10.014;2024-01-07T05:22:20;-0.90;99.90
46508;DHT22;32223;53.654;10.014;2024-01-07T05:24:46;-0.90;99.90
46508;DHT22;32223;53.654;10.014;2024-01-07T05:27:12;-0.90;99.90
46508;DHT22;32223;53.654;10.014;2024-01-07T05:29:37;-0.90;99.90
46508;DHT22;32223;53.654;10.014;2024-01-07T05:32:03;-0.90;99.90
46508;DHT22;32223;53.654;10.014;2024-01-07T05:34:29;-0.90;99.90
46508;DHT22;32223;53.654;10.014;2024-01-07T05:36:55;-0.90;99.90
46508;DHT22;32223;53.654;10.014;2024-01-07T05:39:20;-0.90;99.90
46508;DHT22;32223;53.654;10.014;2024-01-07T05:41:46;-0.90;99.90
46508;DHT22;32223;53.654;10.014;2024-01-07T05:44:12;-0.90;99.90
46508;DHT22;32223;53.654;10.014;2024-01-07T05:46:41;-0.90;99.90
46508;DHT22;32223;53.654;10.014;2024-01-07T05:49:07;-0.90;99.90
46508;DHT22;32223;53.654;10.014;2024-01-07T05:51:33;-0.90;99.90
46508;DHT22;32223;53.654;10.014;2024-01-07T05:53:58;-0.90;99.90
46508;DHT22;32223;53.654;10.014;2024-01-07T05:56:24;-0.90;99.90
46508;DHT22;32223;53.654;10.014;2024-01-07T05:58:50;-1.00;99.90
46508;DHT22;32223;53.654;10.014;2024-01-07T06:01:19;-0.90;99.90
46508;DHT22;32223;53.654;10.014;2024-01-07T06:03:46;-1.00;99.90
46508;DHT22;32223;53.654;10.014;2024-01-07T06:06:13;-0.90;99.90
46508;DHT22;32223;53.654;10.014;2024-01-07T06:08:40;-0.90;99.90
46508;DHT22;32223;53.654;10.014;2024-01-07T06:11:06;-0.90;99.90
46508;DHT22;32223;53.654;10.014;2024-01-07T06:13:32;-0.90;99.90
46508;DHT22;32223;53.654;10.014;2024-01-07T06:15:57;-0.90;99.90
46508;DHT22;32223;53.654;10.014;2024-01-07T06:18:23;-0.90;99.90
46508;DHT22;32223;53.654;10.014;2024-01-07T06:20:49;-0.80;99.90
46508;DHT22;32223;53.654;10.014;2024-01-07T06:23:14;-0.80;99.90
46508;DHT22;32223;53.654;10.014;2024-01-07T06:25:40;-0.90;99.90
46508;DHT22;32223;53.654;10.014;2024-01-07T06:28:06;-1.00;99.90
46508;DHT22;32223;53.654;10.014;2024-01-07T06:30:32;-1.00;99.90
46508;DHT22;32223;53.654;10.014;2024-01-07T06:32:57;-1.00;99.90
46508;DHT22;32223;53.654;10.014;2024-01-07T06:35:23;-0.90;99.90
46508;DHT22;32223;53.654;10.014;2024-01-07T06:37:49;-0.90;99.90
46508;DHT22;32223;53.654;10.014;2024-01-07T06:40:14;-0.90;99.90
46508;DHT22;32223;53.654;10.014;2024-01-07T06:42:40;-0.90;99.90
46508;DHT22;32223;53.654;10.014;2024-01-07T06:45:06;-0.90;99.90
46508;DHT22;32223;53.654;10.014;2024-01-07T06:47:32;-0.90;99.90
46508;DHT22;32223;53.654;10.014;2024-01-07T06:49:58;-0.90;99.90
46508;DHT22;32223;53.654;10.014;2024-01-07T06:52:23;-0.90;99.90
46508;DHT22;32223;53.654;10.014;2024-01-07T06:54:49;-0.90;99.90
46508;DHT22;32223;53.654;10.014;2024-01-07T06:57:14;-0.90;99.90
46508;DHT22;32223;53.654;10.014;2024-01-07T06:59:40;-0.90;99.90
46508;DHT22;32223;53.654;10.014;2024-01-07T07:02:05;-0.90;99.90
46508;DHT22;32223;53.654;10.014;2024-01-07T07:04:31;-1.00;99.90
46508;DHT22;32223;53.654;10.014;2024-01-07T07:06:57;-0.90;99.90
46508;DHT22;32223;53.654;10.014;2024-01-07T07:09:23;-0.80;99.90
46508;DHT22;32223;53.654;10.014;2024-01-07T07:11:48;-0.90;99.90
46508;DHT22;32223;53.654;10.014;2024-01-07T07:14:14;-0.90;99.90
46508;DHT22;32223;53.654;10.014;2024-01-07T07:16:40;-1.00;99.90
46508;DHT22;32223;53.654;10.014;2024-01-07T07:19:05;-1.00;99.90
46508;DHT22;32223;53.654;10.014;2024-01-07T07:21:31;-1.00;99.90
46508;DHT22;32223;53.654;10.014;2024-01-07T07:23:57;-1.10;99.90
46508;DHT22;32223;53.654;10.014;2024-01-07T07:26:23;-1.00;99.90
46508;DHT22;32223;53.654;10.014;2024-01-07T07:28:48;-1.00;99.90
46508;DHT22;32223;53.654;10.014;2024-01-07T07:31:14;-1.10;99.90
46508;DHT22;32223;53.654;10.014;2024-01-07T07:33:40;-1.00;99.90
46508;DHT22;32223;53.654;10.014;2024-01-07T07:36:06;-1.10;99.90
46508;DHT22;32223;53.654;10.014;2024-01-07T07:38:32;-1.10;99.90
46508;DHT22;32223;53.654;10.014;2024-01-07T07:40:58;-1.20;99.90
46508;DHT22;32223;53.654;10.014;2024-01-07T07:43:24;-1.20;99.90
46508;DHT22;32223;53.654;10.014;2024-01-07T07:45:50;-1.30;99.90
46508;DHT22;32223;53.654;10.014;2024-01-07T07:48:16;-1.40;99.90
46508;DHT22;32223;53.654;10.014;2024-01-07T07:50:42;-1.30;99.90
46508;DHT22;32223;53.654;10.014;2024-01-07T07:53:08;-1.30;99.90
46508;DHT22;32223;53.654;10.014;2024-01-07T07:55:33;-1.50;99.90
46508;DHT22;32223;53.654;10.014;2024-01-07T07:57:59;-1.60;99.90
46508;DHT22;32223;53.654;10.014;2024-01-07T08:00:24;-1.60;99.90
46508;DHT22;32223;53.654;10.014;2024-01-07T08:02:50;-1.70;99.90
46508;DHT22;32223;53.654;10.014;2024-01-07T08:05:16;-1.80;99.90
46508;DHT22;32223;53.654;10.014;2024-01-07T08:07:42;-1.80;99.90
46508;DHT22;32223;53.654;10.014;2024-01-07T08:10:07;-1.80;99.90
46508;DHT22;32223;53.654;10.014;2024-01-07T08:12:34;-1.80;99.90
46508;DHT22;32223;53.654;10.014;2024-01-07T08:14:59;-1.80;99.90
46508;DHT22;32223;53.654;10.014;2024-01-07T08:17:25;-1.70;99.90
46508;DHT22;32223;53.654;10.014;2024-01-07T08:19:51;-1.70;99.90
46508;DHT22;32223;53.654;10.014;2024-01-07T08:22:17;-1.70;99.90
46508;DHT22;32223;53.654;10.014;2024-01-07T08:24:43;-1.70;99.90
46508;DHT22;32223;53.654;10.014;2024-01-07T08:27:09;-1.60;99.90
46508;DHT22;32223;53.654;10.014;2024-01-07T08:29:34;-1.60;99.90
46508;DHT22;32223;53.654;10.014;2024-01-07T08:32:01;-1.60;99.90
46508;DHT22;32223;53.654;10.014;2024-01-07T08:34:26;-1.70;99.90
46508;DHT22;32223;53.654;10.014;2024-01-07T08:36:52;-1.80;99.90
46508;DHT22;32223;53.654;10.014;2024-01-07T08:39:19;-1.90;99.90
46508;DHT22;32223;53.654;10.014;2024-01-07T08:41:45;-2.00;99.90
46508;DHT22;32223;53.654;10.014;2024-01-07T08:44:11;-2.10;99.90
46508;DHT22;32223;53.654;10.014;2024-01-07T08:46:36;-2.10;99.90
46508;DHT22;32223;53.654;10.014;2024-01-07T08:49:03;-2.00;99.90
46508;DHT22;32223;53.654;10.014;2024-01-07T08:51:29;-2.00;99.90
46508;DHT22;32223;53.654;10.014;2024-01-07T08:53:55;-2.10;99.90
46508;DHT22;32223;53.654;10.014;2024-01-07T08:56:22;-2.20;99.90
46508;DHT22;32223;53.654;10.014;2024-01-07T08:58:48;-2.20;99.90
46508;DHT22;32223;53.654;10.014;2024-01-07T09:01:14;-2.30;99.90
46508;DHT22;32223;53.654;10.014;2024-01-07T09:03:40;-2.40;99.90
46508;DHT22;32223;53.654;10.014;2024-01-07T09:06:07;-2.40;99.90
46508;DHT22;32223;53.654;10.014;2024-01-07T09:08:33;-2.50;99.90
46508;DHT22;32223;53.654;10.014;2024-01-07T09:10:59;-2.50;99.90
46508;DHT22;32223;53.654;10.014;2024-01-07T09:13:25;-2.50;99.90
46508;DHT22;32223;53.654;10.014;2024-01-07T09:15:51;-2.50;99.90
46508;DHT22;32223;53.654;10.014;2024-01-07T09:18:17;-2.50;99.90
46508;DHT22;32223;53.654;10.014;2024-01-07T09:20:42;-2.50;99.90
46508;DHT22;32223;53.654;10.014;2024-01-07T09:23:08;-2.40;99.90
46508;DHT22;32223;53.654;10.014;2024-01-07T09:25:34;-2.30;99.90
46508;DHT22;32223;53.654;10.014;2024-01-07T09:27:59;-2.20;99.90
46508;DHT22;32223;53.654;10.014;2024-01-07T09:30:25;-2.10;99.90
46508;DHT22;32223;53.654;10.014;2024-01-07T09:32:51;-2.00;99.90
46508;DHT22;32223;53.654;10.014;2024-01-07T09:35:17;-2.00;99.90
46508;DHT22;32223;53.654;10.014;2024-01-07T09:37:42;-1.90;99.90
46508;DHT22;32223;53.654;10.014;2024-01-07T09:40:08;-1.90;99.90
46508;DHT22;32223;53.654;10.014;2024-01-07T09:42:34;-1.90;99.90
46508;DHT22;32223;53.654;10.014;2024-01-07T09:45:03;-1.80;99.90
46508;DHT22;32223;53.654;10.014;2024-01-07T09:47:30;-1.80;99.90
46508;DHT22;32223;53.654;10.014;2024-01-07T09:49:56;-1.80;99.90
46508;DHT22;32223;53.654;10.014;2024-01-07T09:52:22;-1.80;99.90
46508;DHT22;32223;53.654;10.014;2024-01-07T09:54:51;-1.80;99.90
46508;DHT22;32223;53.654;10.014;2024-01-07T09:57:18;-1.70;99.90
46508;DHT22;32223;53.654;10.014;2024-01-07T09:59:45;-1.70;99.90
46508;DHT22;32223;53.654;10.014;2024-01-07T10:02:12;-1.60;99.90
46508;DHT22;32223;53.654;10.014;2024-01-07T10:04:37;-1.50;99.90
46508;DHT22;32223;53.654;10.014;2024-01-07T10:07:03;-1.40;99.90
46508;DHT22;32223;53.654;10.014;2024-01-07T10:09:30;-1.30;99.90
46508;DHT22;32223;53.654;10.014;2024-01-07T10:11:57;-1.30;99.90
46508;DHT22;32223;53.654;10.014;2024-01-07T10:14:24;-1.20;99.90
46508;DHT22;32223;53.654;10.014;2024-01-07T10:16:52;-1.20;99.90
46508;DHT22;32223;53.654;10.014;2024-01-07T10:19:23;-1.20;99.90
46508;DHT22;32223;53.654;10.014;2024-01-07T10:22:03;-1.30;99.90
46508;DHT22;32223;53.654;10.014;2024-01-07T10:24:36;-1.30;99.90
46508;DHT22;32223;53.654;10.014;2024-01-07T10:27:03;-1.30;99.90
46508;DHT22;32223;53.654;10.014;2024-01-07T10:29:30;-1.30;99.90
46508;DHT22;32223;53.654;10.014;2024-01-07T10:31:59;-1.30;99.90
46508;DHT22;32223;53.654;10.014;2024-01-07T10:34:30;-1.20;99.90
46508;DHT22;32223;53.654;10.014;2024-01-07T10:36:57;-1.20;99.90
46508;DHT22;32223;53.654;10.014;2024-01-07T10:39:23;-1.30;99.90
46508;DHT22;32223;53.654;10.014;2024-01-07T10:41:50;-1.30;99.90
46508;DHT22;32223;53.654;10.014;2024-01-07T10:44:19;-1.30;99.90
46508;DHT22;32223;53.654;10.014;2024-01-07T10:46:46;-1.30;99.90
46508;DHT22;32223;53.654;10.014;2024-01-07T10:49:19;-1.40;99.90
46508;DHT22;32223;53.654;10.014;2024-01-07T10:51:50;-1.30;99.90
46508;DHT22;32223;53.654;10.014;2024-01-07T10:54:22;-1.30;99.90
46508;DHT22;32223;53.654;10.014;2024-01-07T10:56:50;-1.20;99.90
46508;DHT22;32223;53.654;10.014;2024-01-07T10:59:20;-1.20;99.90
46508;DHT22;32223;53.654;10.014;2024-01-07T11:01:46;-1.20;99.90
46508;DHT22;32223;53.654;10.014;2024-01-07T11:04:29;-1.10;99.90
46508;DHT22;32223;53.654;10.014;2024-01-07T11:07:03;-1.00;99.90
46508;DHT22;32223;53.654;10.014;2024-01-07T11:09:35;-1.00;99.90
46508;DHT22;32223;53.654;10.014;2024-01-07T11:12:02;-1.00;99.90
46508;DHT22;32223;53.654;10.014;2024-01-07T11:14:38;-1.00;99.90
46508;DHT22;32223;53.654;10.014;2024-01-07T11:17:06;-1.00;99.90
46508;DHT22;32223;53.654;10.014;2024-01-07T11:19:32;-1.00;99.90
46508;DHT22;32223;53.654;10.014;2024-01-07T11:22:26;-0.90;99.90
46508;DHT22;32223;53.654;10.014;2024-01-07T11:25:02;-0.80;99.90
46508;DHT22;32223;53.654;10.014;2024-01-07T11:27:31;-0.70;99.90
46508;DHT22;32223;53.654;10.014;2024-01-07T11:30:18;-0.70;99.90
46508;DHT22;32223;53.654;10.014;2024-01-07T11:32:45;-0.60;99.90
46508;DHT22;32223;53.654;10.014;2024-01-07T11:35:14;-0.50;99.90
46508;DHT22;32223;53.654;10.014;2024-01-07T11:37:41;-0.60;99.90
46508;DHT22;32223;53.654;10.014;2024-01-07T11:40:07;-0.50;99.90
46508;DHT22;32223;53.654;10.014;2024-01-07T11:42:33;-0.40;99.90
46508;DHT22;32223;53.654;10.014;2024-01-07T11:44:59;-0.30;99.90
46508;DHT22;32223;53.654;10.014;2024-01-07T11:47:25;-0.20;99.90
46508;DHT22;32223;53.654;10.014;2024-01-07T11:49:53;0.00;99.90
46508;DHT22;32223;53.654;10.014;2024-01-07T11:52:20;0.20;99.90
46508;DHT22;32223;53.654;10.014;2024-01-07T11:54:47;0.40;99.90
46508;DHT22;32223;53.654;10.014;2024-01-07T11:57:13;0.60;99.90
46508;DHT22;32223;53.654;10.014;2024-01-07T11:59:39;0.90;99.90
46508;DHT22;32223;53.654;10.014;2024-01-07T12:02:05;1.30;99.90
46508;DHT22;32223;53.654;10.014;2024-01-07T12:04:34;2.10;99.90
46508;DHT22;32223;53.654;10.014;2024-01-07T12:07:00;2.70;99.90
46508;DHT22;32223;53.654;10.014;2024-01-07T12:09:27;3.40;99.90
46508;DHT22;32223;53.654;10.014;2024-01-07T12:11:53;3.90;99.90
46508;DHT22;32223;53.654;10.014;2024-01-07T12:14:19;4.30;99.90
46508;DHT22;32223;53.654;10.014;2024-01-07T12:16:46;4.90;99.90
46508;DHT22;32223;53.654;10.014;2024-01-07T12:19:12;5.40;99.90
46508;DHT22;32223;53.654;10.014;2024-01-07T12:21:38;6.00;99.90
46508;DHT22;32223;53.654;10.014;2024-01-07T12:24:04;6.30;99.90
46508;DHT22;32223;53.654;10.014;2024-01-07T12:26:30;6.30;99.90
46508;DHT22;32223;53.654;10.014;2024-01-07T12:28:59;5.90;99.90
46508;DHT22;32223;53.654;10.014;2024-01-07T12:31:31;4.60;99.90
46508;DHT22;32223;53.654;10.014;2024-01-07T12:33:57;3.70;99.90
46508;DHT22;32223;53.654;10.014;2024-01-07T12:36:23;3.80;99.90
46508;DHT22;32223;53.654;10.014;2024-01-07T12:38:49;4.10;99.90
46508;DHT22;32223;53.654;10.014;2024-01-07T12:41:17;4.30;99.90
46508;DHT22;32223;53.654;10.014;2024-01-07T12:43:43;4.80;99.90
46508;DHT22;32223;53.654;10.014;2024-01-07T12:46:08;4.70;99.90
46508;DHT22;32223;53.654;10.014;2024-01-07T12:48:34;4.40;99.90
46508;DHT22;32223;53.654;10.014;2024-01-07T12:51:00;4.50;99.90
46508;DHT22;32223;53.654;10.014;2024-01-07T12:53:26;4.70;99.90
46508;DHT22;32223;53.654;10.014;2024-01-07T12:55:53;5.30;99.90
46508;DHT22;32223;53.654;10.014;2024-01-07T12:58:19;5.50;99.90
46508;DHT22;32223;53.654;10.014;2024-01-07T13:00:44;5.50;99.80
46508;DHT22;32223;53.654;10.014;2024-01-07T13:03:10;5.80;98.90
46508;DHT22;32223;53.654;10.014;2024-01-07T13:05:46;5.80;98.20
46508;DHT22;32223;53.654;10.014;2024-01-07T13:08:14;6.20;97.20
46508;DHT22;32223;53.654;10.014;2024-01-07T13:10:39;6.60;95.90
46508;DHT22;32223;53.654;10.014;2024-01-07T13:13:05;6.80;94.90
46508;DHT22;32223;53.654;10.014;2024-01-07T13:15:31;6.50;94.80
46508;DHT22;32223;53.654;10.014;2024-01-07T13:17:57;6.10;94.80
46508;DHT22;32223;53.654;10.014;2024-01-07T13:20:23;5.90;94.80
46508;DHT22;32223;53.654;10.014;2024-01-07T13:22:49;6.00;94.40
46508;DHT22;32223;53.654;10.014;2024-01-07T13:25:15;5.80;93.10
46508;DHT22;32223;53.654;10.014;2024-01-07T13:27:40;5.60;93.20
46508;DHT22;32223;53.654;10.014;2024-01-07T13:30:08;5.40;93.10
46508;DHT22;32223;53.654;10.014;2024-01-07T13:32:35;5.30;93.30
46508;DHT22;32223;53.654;10.014;2024-01-07T13:35:02;5.50;92.90
46508;DHT22;32223;53.654;10.014;2024-01-07T13:37:28;5.40;92.40
46508;DHT22;32223;53.654;10.014;2024-01-07T13:39:54;5.40;92.50
46508;DHT22;32223;53.654;10.014;2024-01-07T13:42:19;4.90;92.40
46508;DHT22;32223;53.654;10.014;2024-01-07T13:44:45;4.80;92.40
46508;DHT22;32223;53.654;10.014;2024-01-07T13:47:12;4.50;92.80
46508;DHT22;32223;53.654;10.014;2024-01-07T13:49:42;3.70;93.80
46508;DHT22;32223;53.654;10.014;2024-01-07T13:52:07;2.60;95.90
46508;DHT22;32223;53.654;10.014;2024-01-07T13:54:33;1.60;97.40
46508;DHT22;32223;53.654;10.014;2024-01-07T13:56:59;0.80;99.50
46508;DHT22;32223;53.654;10.014;2024-01-07T13:59:25;0.30;99.90
46508;DHT22;32223;53.654;10.014;2024-01-07T14:01:51;0.50;99.90
46508;DHT22;32223;53.654;10.014;2024-01-07T14:04:17;1.10;99.90
46508;DHT22;32223;53.654;10.014;2024-01-07T14:06:44;1.50;99.90
46508;DHT22;32223;53.654;10.014;2024-01-07T14:09:11;1.80;99.90
46508;DHT22;32223;53.654;10.014;2024-01-07T14:11:37;1.80;99.90
46508;DHT22;32223;53.654;10.014;2024-01-07T14:14:02;1.30;99.90
46508;DHT22;32223;53.654;10.014;2024-01-07T14:16:28;0.50;99.90
46508;DHT22;32223;53.654;10.014;2024-01-07T14:18:54;-0.30;99.90
46508;DHT22;32223;53.654;10.014;2024-01-07T14:21:19;-0.90;99.90
46508;DHT22;32223;53.654;10.014;2024-01-07T14:23:45;-1.30;99.90
46508;DHT22;32223;53.654;10.014;2024-01-07T14:26:11;-1.60;99.90
46508;DHT22;32223;53.654;10.014;2024-01-07T14:28:36;-1.80;99.90
46508;DHT22;32223;53.654;10.014;2024-01-07T14:31:02;-2.00;99.90
46508;DHT22;32223;53.654;10.014;2024-01-07T14:33:28;-2.10;99.90
46508;DHT22;32223;53.654;10.014;2024-01-07T14:35:54;-2.10;99.90
46508;DHT22;32223;53.654;10.014;2024-01-07T14:38:20;-2.20;99.90
46508;DHT22;32223;53.654;10.014;2024-01-07T14:40:46;-2.20;99.90
46508;DHT22;32223;53.654;10.014;2024-01-07T14:43:12;-2.20;99.90
46508;DHT22;32223;53.654;10.014;2024-01-07T14:45:38;-2.30;99.90
46508;DHT22;32223;53.654;10.014;2024-01-07T14:48:04;-2.40;99.90
46508;DHT22;32223;53.654;10.014;2024-01-07T14:50:30;-2.40;99.90
46508;DHT22;32223;53.654;10.014;2024-01-07T14:52:55;-2.40;99.90
46508;DHT22;32223;53.654;10.014;2024-01-07T14:55:21;-2.40;99.90
46508;DHT22;32223;53.654;10.014;2024-01-07T14:57:46;-2.50;99.90
46508;DHT22;32223;53.654;10.014;2024-01-07T15:00:12;-2.50;99.90
46508;DHT22;32223;53.654;10.014;2024-01-07T15:02:39;-2.50;99.90
46508;DHT22;32223;53.654;10.014;2024-01-07T15:05:05;-2.60;99.90
46508;DHT22;32223;53.654;10.014;2024-01-07T15:07:31;-2.60;99.90
46508;DHT22;32223;53.654;10.014;2024-01-07T15:09:56;-2.60;99.90
46508;DHT22;32223;53.654;10.014;2024-01-07T15:12:23;-2.60;99.90